sensor_id;sensor_type;location;lat;lon;timestamp;P1;durP1;ratioP1;P2;durP2;ratioP2
59239;SDS011;45010;53.640;10.578;2022-10-31T00:01:54;8.32;;;5.55;;
59239;SDS011;45010;53.640;10.578;2022-10-31T00:04:54;11.10;;;6.40;;
59239;SDS011;45010;53.640;10.578;2022-10-31T00:07:54;10.65;;;5.50;;
59239;SDS011;45010;53.640;10.578;2022-10-31T00:10:55;10.38;;;5.43;;
59239;SDS011;45010;53.640;10.578;2022-10-31T00:13:56;11.65;;;4.97;;
59239;SDS011;45010;53.640;10.578;2022-10-31T00:16:57;8.55;;;4.43;;
59239;SDS011;45010;53.640;10.578;2022-10-31T00:19:57;8.63;;;5.35;;
59239;SDS011;45010;53.640;10.578;2022-10-31T00:22:58;8.63;;;5.07;;
59239;SDS011;45010;53.640;10.578;2022-10-31T00:26:00;9.68;;;5.00;;
59239;SDS011;45010;53.640;10.578;2022-10-31T00:29:04;8.10;;;5.28;;
59239;SDS011;45010;53.640;10.578;2022-10-31T00:32:04;8.13;;;4.35;;
59239;SDS011;45010;53.640;10.578;2022-10-31T00:35:04;10.18;;;5.13;;
59239;SDS011;45010;53.640;10.578;2022-10-31T00:38:05;8.63;;;4.88;;
59239;SDS011;45010;53.640;10.578;2022-10-31T00:41:05;8.43;;;5.35;;
59239;SDS011;45010;53.640;10.578;2022-10-31T00:44:06;7.95;;;4.70;;
59239;SDS011;45010;53.640;10.578;2022-10-31T00:47:06;9.43;;;5.25;;
59239;SDS011;45010;53.640;10.578;2022-10-31T00:50:07;14.07;;;4.78;;
59239;SDS011;45010;53.640;10.578;2022-10-31T00:53:08;10.70;;;4.38;;
59239;SDS011;45010;53.640;10.578;2022-10-31T00:56:08;8.10;;;4.80;;
59239;SDS011;45010;53.640;10.578;2022-10-31T00:59:09;8.85;;;4.40;;
59239;SDS011;45010;53.640;10.578;2022-10-31T01:02:09;7.25;;;4.43;;
59239;SDS011;45010;53.640;10.578;2022-10-31T01:05:09;7.25;;;4.47;;
59239;SDS011;45010;53.640;10.578;2022-10-31T01:08:10;7.40;;;4.53;;
59239;SDS011;45010;53.640;10.578;2022-10-31T01:11:17;7.80;;;4.47;;
59239;SDS011;45010;53.640;10.578;2022-10-31T01:14:19;8.23;;;5.00;;
59239;SDS011;45010;53.640;10.578;2022-10-31T01:17:20;7.32;;;4.65;;
59239;SDS011;45010;53.640;10.578;2022-10-31T01:20:20;7.78;;;4.45;;
59239;SDS011;45010;53.640;10.578;2022-10-31T01:23:20;6.63;;;4.50;;
59239;SDS011;45010;53.640;10.578;2022-10-31T01:26:22;7.85;;;4.47;;
59239;SDS011;45010;53.640;10.578;2022-10-31T01:29:26;5.82;;;3.90;;
59239;SDS011;45010;53.640;10.578;2022-10-31T01:32:27;7.05;;;4.32;;
59239;SDS011;45010;53.640;10.578;2022-10-31T01:35:28;7.22;;;4.28;;
59239;SDS011;45010;53.640;10.578;2022-10-31T01:38:29;7.70;;;4.28;;
59239;SDS011;45010;53.640;10.578;2022-10-31T01:41:31;6.88;;;3.80;;
59239;SDS011;45010;53.640;10.578;2022-10-31T01:47:36;6.95;;;3.80;;
59239;SDS011;45010;53.640;10.578;2022-10-31T01:50:41;6.55;;;4.25;;
59239;SDS011;45010;53.640;10.578;2022-10-31T01:53:44;7.22;;;4.07;;
59239;SDS011;45010;53.640;10.578;2022-10-31T01:56:48;6.60;;;4.32;;
59239;SDS011;45010;53.640;10.578;2022-10-31T01:59:53;7.50;;;3.65;;
59239;SDS011;45010;53.640;10.578;2022-10-31T02:02:57;7.15;;;4.28;;
59239;SDS011;45010;53.640;10.578;2022-10-31T02:05:59;7.40;;;3.88;;
59239;SDS011;45010;53.640;10.578;2022-10-31T02:08:59;7.93;;;4.13;;
59239;SDS011;45010;53.640;10.578;2022-10-31T02:12:02;6.10;;;3.92;;
59239;SDS011;45010;53.640;10.578;2022-10-31T02:15:03;6.43;;;3.90;;
59239;SDS011;45010;53.640;10.578;2022-10-31T02:18:04;5.78;;;3.72;;
59239;SDS011;45010;53.640;10.578;2022-10-31T02:21:19;6.65;;;3.95;;
59239;SDS011;45010;53.640;10.578;2022-10-31T02:31:41;6.35;;;3.83;;
59239;SDS011;45010;53.640;10.578;2022-10-31T02:34:57;4.78;;;3.60;;
59239;SDS011;45010;53.640;10.578;2022-10-31T02:38:47;4.80;;;3.20;;
59239;SDS011;45010;53.640;10.578;2022-10-31T02:45:07;5.25;;;3.80;;
59239;SDS011;45010;53.640;10.578;2022-10-31T02:48:14;4.70;;;3.40;;
59239;SDS011;45010;53.640;10.578;2022-10-31T02:51:19;6.07;;;3.63;;
59239;SDS011;45010;53.640;10.578;2022-10-31T02:54:24;5.03;;;3.60;;
59239;SDS011;45010;53.640;10.578;2022-10-31T02:57:28;6.20;;;3.97;;
59239;SDS011;45010;53.640;10.578;2022-10-31T03:13:45;5.05;;;3.47;;
59239;SDS011;45010;53.640;10.578;2022-10-31T03:16:50;5.20;;;3.58;;
59239;SDS011;45010;53.640;10.578;2022-10-31T03:19:55;4.35;;;3.30;;
59239;SDS011;45010;53.640;10.578;2022-10-31T03:23:00;5.63;;;3.38;;
59239;SDS011;45010;53.640;10.578;2022-10-31T03:26:03;5.00;;;3.33;;
59239;SDS011;45010;53.640;10.578;2022-10-31T03:29:06;5.43;;;2.85;;
59239;SDS011;45010;53.640;10.578;2022-10-31T03:32:12;4.95;;;3.50;;
59239;SDS011;45010;53.640;10.578;2022-10-31T03:35:17;4.68;;;3.10;;
59239;SDS011;45010;53.640;10.578;2022-10-31T03:38:20;4.57;;;3.15;;
59239;SDS011;45010;53.640;10.578;2022-10-31T03:41:23;5.57;;;3.55;;
59239;SDS011;45010;53.640;10.578;2022-10-31T03:44:28;5.10;;;3.22;;
59239;SDS011;45010;53.640;10.578;2022-10-31T03:47:30;5.60;;;3.83;;
59239;SDS011;45010;53.640;10.578;2022-10-31T03:54:24;5.25;;;3.50;;
59239;SDS011;45010;53.640;10.578;2022-10-31T03:57:33;4.28;;;2.92;;
59239;SDS011;45010;53.640;10.578;2022-10-31T04:00:42;4.53;;;3.10;;
59239;SDS011;45010;53.640;10.578;2022-10-31T04:03:45;4.43;;;3.08;;
59239;SDS011;45010;53.640;10.578;2022-10-31T04:06:46;4.65;;;3.33;;
59239;SDS011;45010;53.640;10.578;2022-10-31T04:09:49;3.92;;;3.22;;
59239;SDS011;45010;53.640;10.578;2022-10-31T04:12:53;4.55;;;3.28;;
59239;SDS011;45010;53.640;10.578;2022-10-31T04:15:58;4.72;;;3.00;;
59239;SDS011;45010;53.640;10.578;2022-10-31T04:18:59;5.88;;;3.38;;
59239;SDS011;45010;53.640;10.578;2022-10-31T04:21:59;5.18;;;3.28;;
59239;SDS011;45010;53.640;10.578;2022-10-31T04:25:00;3.83;;;2.83;;
59239;SDS011;45010;53.640;10.578;2022-10-31T04:28:00;4.00;;;3.25;;
59239;SDS011;45010;53.640;10.578;2022-10-31T04:31:00;3.53;;;3.00;;
59239;SDS011;45010;53.640;10.578;2022-10-31T04:34:01;4.55;;;2.80;;
59239;SDS011;45010;53.640;10.578;2022-10-31T04:37:01;4.00;;;3.10;;
59239;SDS011;45010;53.640;10.578;2022-10-31T04:40:02;4.00;;;2.95;;
59239;SDS011;45010;53.640;10.578;2022-10-31T04:43:03;4.88;;;3.40;;
59239;SDS011;45010;53.640;10.578;2022-10-31T04:46:03;5.32;;;3.63;;
59239;SDS011;45010;53.640;10.578;2022-10-31T04:49:04;4.68;;;2.80;;
59239;SDS011;45010;53.640;10.578;2022-10-31T04:52:04;5.40;;;3.60;;
59239;SDS011;45010;53.640;10.578;2022-10-31T04:55:04;4.45;;;3.35;;
59239;SDS011;45010;53.640;10.578;2022-10-31T04:58:05;4.32;;;3.20;;
59239;SDS011;45010;53.640;10.578;2022-10-31T05:01:05;3.97;;;2.90;;
59239;SDS011;45010;53.640;10.578;2022-10-31T05:04:06;4.70;;;2.83;;
59239;SDS011;45010;53.640;10.578;2022-10-31T05:07:06;3.83;;;2.78;;
59239;SDS011;45010;53.640;10.578;2022-10-31T05:10:07;3.60;;;2.97;;
59239;SDS011;45010;53.640;10.578;2022-10-31T05:13:09;3.92;;;2.85;;
59239;SDS011;45010;53.640;10.578;2022-10-31T05:16:10;4.00;;;2.90;;
59239;SDS011;45010;53.640;10.578;2022-10-31T05:19:10;3.97;;;2.85;;
59239;SDS011;45010;53.640;10.578;2022-10-31T05:22:11;4.70;;;3.22;;
59239;SDS011;45010;53.640;10.578;2022-10-31T05:25:11;3.30;;;2.90;;
59239;SDS011;45010;53.640;10.578;2022-10-31T05:28:11;4.68;;;2.60;;
59239;SDS011;45010;53.640;10.578;2022-10-31T05:31:12;4.82;;;3.00;;
59239;SDS011;45010;53.640;10.578;2022-10-31T05:34:12;3.25;;;2.40;;
59239;SDS011;45010;53.640;10.578;2022-10-31T05:37:12;2.92;;;2.53;;
59239;SDS011;45010;53.640;10.578;2022-10-31T05:40:13;4.38;;;2.75;;
59239;SDS011;45010;53.640;10.578;2022-10-31T05:43:15;4.72;;;2.90;;
59239;SDS011;45010;53.640;10.578;2022-10-31T05:46:16;3.38;;;2.70;;
59239;SDS011;45010;53.640;10.578;2022-10-31T05:49:16;5.03;;;3.30;;
59239;SDS011;45010;53.640;10.578;2022-10-31T05:52:17;4.30;;;2.95;;
59239;SDS011;45010;53.640;10.578;2022-10-31T05:55:17;3.30;;;2.55;;
59239;SDS011;45010;53.640;10.578;2022-10-31T05:58:17;4.65;;;3.30;;
59239;SDS011;45010;53.640;10.578;2022-10-31T06:01:18;3.80;;;3.03;;
59239;SDS011;45010;53.640;10.578;2022-10-31T06:04:18;3.83;;;2.83;;
59239;SDS011;45010;53.640;10.578;2022-10-31T06:07:18;3.42;;;2.92;;
59239;SDS011;45010;53.640;10.578;2022-10-31T06:10:19;5.07;;;2.70;;
59239;SDS011;45010;53.640;10.578;2022-10-31T06:13:21;4.32;;;2.65;;
59239;SDS011;45010;53.640;10.578;2022-10-31T06:16:21;3.58;;;2.50;;
59239;SDS011;45010;53.640;10.578;2022-10-31T06:19:21;10.48;;;3.10;;
59239;SDS011;45010;53.640;10.578;2022-10-31T06:22:22;5.35;;;2.70;;
59239;SDS011;45010;53.640;10.578;2022-10-31T06:25:22;4.72;;;2.50;;
59239;SDS011;45010;53.640;10.578;2022-10-31T06:28:22;4.05;;;2.65;;
59239;SDS011;45010;53.640;10.578;2022-10-31T06:31:23;4.40;;;2.72;;
59239;SDS011;45010;53.640;10.578;2022-10-31T06:34:23;5.78;;;2.75;;
59239;SDS011;45010;53.640;10.578;2022-10-31T06:37:23;5.32;;;2.47;;
59239;SDS011;45010;53.640;10.578;2022-10-31T06:40:24;5.55;;;2.75;;
59239;SDS011;45010;53.640;10.578;2022-10-31T06:43:24;4.97;;;2.60;;
59239;SDS011;45010;53.640;10.578;2022-10-31T06:46:24;7.20;;;2.97;;
59239;SDS011;45010;53.640;10.578;2022-10-31T06:49:25;5.53;;;2.85;;
59239;SDS011;45010;53.640;10.578;2022-10-31T06:52:25;3.20;;;2.50;;
59239;SDS011;45010;53.640;10.578;2022-10-31T06:55:26;5.07;;;3.13;;
59239;SDS011;45010;53.640;10.578;2022-10-31T06:58:26;14.15;;;3.58;;
59239;SDS011;45010;53.640;10.578;2022-10-31T07:01:27;5.63;;;3.13;;
59239;SDS011;45010;53.640;10.578;2022-10-31T07:04:27;4.28;;;2.80;;
59239;SDS011;45010;53.640;10.578;2022-10-31T07:07:27;4.35;;;2.75;;
59239;SDS011;45010;53.640;10.578;2022-10-31T07:10:29;4.90;;;3.00;;
59239;SDS011;45010;53.640;10.578;2022-10-31T07:13:30;3.60;;;2.90;;
59239;SDS011;45010;53.640;10.578;2022-10-31T07:16:30;3.90;;;2.67;;
59239;SDS011;45010;53.640;10.578;2022-10-31T07:19:31;5.43;;;2.78;;
59239;SDS011;45010;53.640;10.578;2022-10-31T07:22:35;5.85;;;2.95;;
59239;SDS011;45010;53.640;10.578;2022-10-31T07:25:36;5.97;;;2.83;;
59239;SDS011;45010;53.640;10.578;2022-10-31T07:28:37;7.13;;;3.10;;
59239;SDS011;45010;53.640;10.578;2022-10-31T07:31:38;4.25;;;2.70;;
59239;SDS011;45010;53.640;10.578;2022-10-31T07:34:38;4.75;;;2.78;;
59239;SDS011;45010;53.640;10.578;2022-10-31T07:37:38;5.00;;;2.95;;
59239;SDS011;45010;53.640;10.578;2022-10-31T07:40:39;4.25;;;3.17;;
59239;SDS011;45010;53.640;10.578;2022-10-31T07:43:40;4.53;;;2.60;;
59239;SDS011;45010;53.640;10.578;2022-10-31T07:46:41;5.35;;;3.05;;
59239;SDS011;45010;53.640;10.578;2022-10-31T07:49:41;5.68;;;2.75;;
59239;SDS011;45010;53.640;10.578;2022-10-31T07:52:41;5.07;;;2.78;;
59239;SDS011;45010;53.640;10.578;2022-10-31T07:55:42;5.10;;;3.08;;
59239;SDS011;45010;53.640;10.578;2022-10-31T07:58:43;8.98;;;3.53;;
59239;SDS011;45010;53.640;10.578;2022-10-31T08:01:43;8.27;;;3.42;;
59239;SDS011;45010;53.640;10.578;2022-10-31T08:04:44;8.23;;;3.25;;
59239;SDS011;45010;53.640;10.578;2022-10-31T08:07:44;6.70;;;2.40;;
59239;SDS011;45010;53.640;10.578;2022-10-31T08:10:44;4.20;;;2.70;;
59239;SDS011;45010;53.640;10.578;2022-10-31T08:13:46;7.90;;;3.17;;
59239;SDS011;45010;53.640;10.578;2022-10-31T08:16:46;8.18;;;3.15;;
59239;SDS011;45010;53.640;10.578;2022-10-31T08:19:46;9.77;;;3.72;;
59239;SDS011;45010;53.640;10.578;2022-10-31T08:22:53;6.95;;;3.28;;
59239;SDS011;45010;53.640;10.578;2022-10-31T08:25:58;5.22;;;3.38;;
59239;SDS011;45010;53.640;10.578;2022-10-31T08:28:58;6.60;;;3.25;;
59239;SDS011;45010;53.640;10.578;2022-10-31T08:31:59;4.60;;;2.78;;
59239;SDS011;45010;53.640;10.578;2022-10-31T08:34:59;7.10;;;3.47;;
59239;SDS011;45010;53.640;10.578;2022-10-31T08:37:59;6.68;;;3.13;;
59239;SDS011;45010;53.640;10.578;2022-10-31T08:41:00;6.90;;;3.13;;
59239;SDS011;45010;53.640;10.578;2022-10-31T08:44:00;5.35;;;2.67;;
59239;SDS011;45010;53.640;10.578;2022-10-31T08:47:01;6.10;;;2.90;;
59239;SDS011;45010;53.640;10.578;2022-10-31T08:50:01;5.75;;;2.70;;
59239;SDS011;45010;53.640;10.578;2022-10-31T08:53:02;5.60;;;3.30;;
59239;SDS011;45010;53.640;10.578;2022-10-31T08:56:07;4.03;;;2.83;;
59239;SDS011;45010;53.640;10.578;2022-10-31T08:59:07;5.15;;;2.97;;
59239;SDS011;45010;53.640;10.578;2022-10-31T09:02:08;5.20;;;2.92;;
59239;SDS011;45010;53.640;10.578;2022-10-31T09:05:08;4.70;;;2.70;;
59239;SDS011;45010;53.640;10.578;2022-10-31T09:08:09;7.63;;;2.70;;
59239;SDS011;45010;53.640;10.578;2022-10-31T09:11:09;6.00;;;3.13;;
59239;SDS011;45010;53.640;10.578;2022-10-31T09:14:09;4.70;;;3.00;;
59239;SDS011;45010;53.640;10.578;2022-10-31T09:17:10;7.97;;;2.97;;
59239;SDS011;45010;53.640;10.578;2022-10-31T09:20:10;4.25;;;2.90;;
59239;SDS011;45010;53.640;10.578;2022-10-31T09:26:13;4.93;;;2.90;;
59239;SDS011;45010;53.640;10.578;2022-10-31T09:29:13;4.55;;;3.20;;
59239;SDS011;45010;53.640;10.578;2022-10-31T09:32:13;6.75;;;2.85;;
59239;SDS011;45010;53.640;10.578;2022-10-31T09:35:14;4.75;;;2.90;;
59239;SDS011;45010;53.640;10.578;2022-10-31T09:38:15;5.38;;;2.70;;
59239;SDS011;45010;53.640;10.578;2022-10-31T09:41:28;3.92;;;2.70;;
59239;SDS011;45010;53.640;10.578;2022-10-31T09:51:45;7.15;;;3.60;;
59239;SDS011;45010;53.640;10.578;2022-10-31T09:54:54;5.28;;;2.95;;
59239;SDS011;45010;53.640;10.578;2022-10-31T09:57:58;7.32;;;3.38;;
59239;SDS011;45010;53.640;10.578;2022-10-31T10:01:01;7.00;;;2.95;;
59239;SDS011;45010;53.640;10.578;2022-10-31T10:07:49;5.18;;;3.08;;
59239;SDS011;45010;53.640;10.578;2022-10-31T10:11:00;7.88;;;2.92;;
59239;SDS011;45010;53.640;10.578;2022-10-31T10:20:37;5.85;;;2.63;;
59239;SDS011;45010;53.640;10.578;2022-10-31T10:23:51;3.75;;;3.10;;
59239;SDS011;45010;53.640;10.578;2022-10-31T10:33:59;10.30;;;3.38;;
59239;SDS011;45010;53.640;10.578;2022-10-31T10:37:13;5.03;;;2.80;;
59239;SDS011;45010;53.640;10.578;2022-10-31T10:40:18;5.97;;;2.88;;
59239;SDS011;45010;53.640;10.578;2022-10-31T10:46:28;4.60;;;2.55;;
59239;SDS011;45010;53.640;10.578;2022-10-31T10:49:58;5.70;;;2.55;;
59239;SDS011;45010;53.640;10.578;2022-10-31T10:59:59;4.15;;;2.53;;
59239;SDS011;45010;53.640;10.578;2022-10-31T11:03:01;3.55;;;2.35;;
59239;SDS011;45010;53.640;10.578;2022-10-31T11:06:02;5.35;;;2.75;;
59239;SDS011;45010;53.640;10.578;2022-10-31T11:09:09;3.97;;;2.35;;
59239;SDS011;45010;53.640;10.578;2022-10-31T11:12:15;3.95;;;2.70;;
59239;SDS011;45010;53.640;10.578;2022-10-31T11:15:21;4.50;;;2.05;;
59239;SDS011;45010;53.640;10.578;2022-10-31T11:18:25;4.75;;;2.38;;
59239;SDS011;45010;53.640;10.578;2022-10-31T11:21:28;2.92;;;2.05;;
59239;SDS011;45010;53.640;10.578;2022-10-31T11:24:29;4.28;;;2.42;;
59239;SDS011;45010;53.640;10.578;2022-10-31T11:27:30;3.58;;;2.10;;
59239;SDS011;45010;53.640;10.578;2022-10-31T11:30:31;5.13;;;2.13;;
59239;SDS011;45010;53.640;10.578;2022-10-31T11:33:46;5.65;;;2.50;;
59239;SDS011;45010;53.640;10.578;2022-10-31T11:36:49;3.45;;;1.95;;
59239;SDS011;45010;53.640;10.578;2022-10-31T11:39:53;4.05;;;2.55;;
59239;SDS011;45010;53.640;10.578;2022-10-31T11:42:56;4.63;;;2.15;;
59239;SDS011;45010;53.640;10.578;2022-10-31T11:45:58;3.95;;;1.85;;
59239;SDS011;45010;53.640;10.578;2022-10-31T11:48:59;5.07;;;2.28;;
59239;SDS011;45010;53.640;10.578;2022-10-31T11:52:01;3.00;;;2.20;;
59239;SDS011;45010;53.640;10.578;2022-10-31T11:58:22;4.50;;;1.88;;
59239;SDS011;45010;53.640;10.578;2022-10-31T12:01:26;3.78;;;1.83;;
59239;SDS011;45010;53.640;10.578;2022-10-31T12:04:34;3.25;;;2.03;;
59239;SDS011;45010;53.640;10.578;2022-10-31T12:07:37;4.40;;;2.03;;
59239;SDS011;45010;53.640;10.578;2022-10-31T12:10:52;3.58;;;2.03;;
59239;SDS011;45010;53.640;10.578;2022-10-31T12:14:05;3.13;;;1.98;;
59239;SDS011;45010;53.640;10.578;2022-10-31T12:17:15;2.83;;;1.92;;
59239;SDS011;45010;53.640;10.578;2022-10-31T12:27:13;5.72;;;2.13;;
59239;SDS011;45010;53.640;10.578;2022-10-31T12:30:36;4.40;;;2.10;;
59239;SDS011;45010;53.640;10.578;2022-10-31T12:37:00;3.63;;;2.03;;
59239;SDS011;45010;53.640;10.578;2022-10-31T12:43:52;4.20;;;2.45;;
59239;SDS011;45010;53.640;10.578;2022-10-31T12:53:27;8.25;;;2.78;;
59239;SDS011;45010;53.640;10.578;2022-10-31T12:59:56;5.18;;;2.85;;
59239;SDS011;45010;53.640;10.578;2022-10-31T13:03:05;6.22;;;2.35;;
59239;SDS011;45010;53.640;10.578;2022-10-31T13:06:22;5.38;;;2.78;;
59239;SDS011;45010;53.640;10.578;2022-10-31T13:09:38;4.28;;;2.50;;
59239;SDS011;45010;53.640;10.578;2022-10-31T13:12:45;3.75;;;2.20;;
59239;SDS011;45010;53.640;10.578;2022-10-31T13:15:50;3.58;;;2.05;;
59239;SDS011;45010;53.640;10.578;2022-10-31T13:18:57;3.97;;;1.95;;
59239;SDS011;45010;53.640;10.578;2022-10-31T13:22:34;4.40;;;1.95;;
59239;SDS011;45010;53.640;10.578;2022-10-31T13:25:32;6.15;;;2.35;;
59239;SDS011;45010;53.640;10.578;2022-10-31T13:28:54;4.43;;;2.22;;
59239;SDS011;45010;53.640;10.578;2022-10-31T13:32:00;5.20;;;2.20;;
59239;SDS011;45010;53.640;10.578;2022-10-31T13:35:04;4.78;;;2.33;;
59239;SDS011;45010;53.640;10.578;2022-10-31T13:38:32;5.43;;;2.30;;
59239;SDS011;45010;53.640;10.578;2022-10-31T13:41:46;3.33;;;2.10;;
59239;SDS011;45010;53.640;10.578;2022-10-31T13:45:18;2.75;;;1.90;;
59239;SDS011;45010;53.640;10.578;2022-10-31T13:48:39;3.35;;;1.80;;
59239;SDS011;45010;53.640;10.578;2022-10-31T13:51:42;4.45;;;2.08;;
59239;SDS011;45010;53.640;10.578;2022-10-31T13:54:43;3.58;;;1.65;;
59239;SDS011;45010;53.640;10.578;2022-10-31T13:57:46;3.38;;;2.20;;
59239;SDS011;45010;53.640;10.578;2022-10-31T14:00:56;3.88;;;1.90;;
59239;SDS011;45010;53.640;10.578;2022-10-31T14:04:16;3.78;;;1.73;;
59239;SDS011;45010;53.640;10.578;2022-10-31T14:07:21;2.92;;;2.03;;
59239;SDS011;45010;53.640;10.578;2022-10-31T14:13:32;3.30;;;2.10;;
59239;SDS011;45010;53.640;10.578;2022-10-31T14:16:37;3.97;;;2.00;;
59239;SDS011;45010;53.640;10.578;2022-10-31T14:19:40;3.22;;;1.80;;
59239;SDS011;45010;53.640;10.578;2022-10-31T14:22:40;4.72;;;1.90;;
59239;SDS011;45010;53.640;10.578;2022-10-31T14:25:41;3.60;;;1.70;;
59239;SDS011;45010;53.640;10.578;2022-10-31T14:28:41;3.58;;;1.52;;
59239;SDS011;45010;53.640;10.578;2022-10-31T14:31:43;3.35;;;1.60;;
59239;SDS011;45010;53.640;10.578;2022-10-31T14:50:56;2.97;;;2.10;;
59239;SDS011;45010;53.640;10.578;2022-10-31T14:53:58;2.75;;;1.98;;
59239;SDS011;45010;53.640;10.578;2022-10-31T14:57:02;2.60;;;1.55;;
59239;SDS011;45010;53.640;10.578;2022-10-31T15:00:07;2.20;;;1.45;;
59239;SDS011;45010;53.640;10.578;2022-10-31T15:03:16;3.65;;;1.92;;
59239;SDS011;45010;53.640;10.578;2022-10-31T15:06:26;3.47;;;1.90;;
59239;SDS011;45010;53.640;10.578;2022-10-31T15:09:36;6.72;;;2.03;;
59239;SDS011;45010;53.640;10.578;2022-10-31T15:12:43;4.65;;;1.80;;
59239;SDS011;45010;53.640;10.578;2022-10-31T15:15:44;5.40;;;2.05;;
59239;SDS011;45010;53.640;10.578;2022-10-31T15:18:48;6.32;;;2.00;;
59239;SDS011;45010;53.640;10.578;2022-10-31T15:21:53;3.38;;;2.28;;
59239;SDS011;45010;53.640;10.578;2022-10-31T15:24:56;3.05;;;2.03;;
59239;SDS011;45010;53.640;10.578;2022-10-31T15:27:56;3.25;;;1.73;;
59239;SDS011;45010;53.640;10.578;2022-10-31T15:30:58;2.97;;;1.80;;
59239;SDS011;45010;53.640;10.578;2022-10-31T15:34:11;3.90;;;2.05;;
59239;SDS011;45010;53.640;10.578;2022-10-31T15:37:20;3.63;;;1.83;;
59239;SDS011;45010;53.640;10.578;2022-10-31T15:40:23;2.88;;;1.90;;
59239;SDS011;45010;53.640;10.578;2022-10-31T15:43:25;3.72;;;1.70;;
59239;SDS011;45010;53.640;10.578;2022-10-31T15:46:27;3.58;;;1.63;;
59239;SDS011;45010;53.640;10.578;2022-10-31T15:49:32;2.63;;;1.98;;
59239;SDS011;45010;53.640;10.578;2022-10-31T15:52:40;3.70;;;2.08;;
59239;SDS011;45010;53.640;10.578;2022-10-31T15:55:50;4.90;;;1.88;;
59239;SDS011;45010;53.640;10.578;2022-10-31T15:58:54;4.43;;;1.65;;
59239;SDS011;45010;53.640;10.578;2022-10-31T16:02:00;3.88;;;2.10;;
59239;SDS011;45010;53.640;10.578;2022-10-31T16:05:14;3.08;;;2.28;;
59239;SDS011;45010;53.640;10.578;2022-10-31T16:11:37;3.40;;;1.77;;
59239;SDS011;45010;53.640;10.578;2022-10-31T16:14:38;4.43;;;1.85;;
59239;SDS011;45010;53.640;10.578;2022-10-31T16:17:42;3.83;;;2.00;;
59239;SDS011;45010;53.640;10.578;2022-10-31T16:20:52;2.35;;;1.70;;
59239;SDS011;45010;53.640;10.578;2022-10-31T16:23:57;3.33;;;1.90;;
59239;SDS011;45010;53.640;10.578;2022-10-31T16:27:13;2.75;;;2.00;;
59239;SDS011;45010;53.640;10.578;2022-10-31T16:33:38;2.88;;;1.88;;
59239;SDS011;45010;53.640;10.578;2022-10-31T16:36:40;4.05;;;1.98;;
59239;SDS011;45010;53.640;10.578;2022-10-31T16:39:41;3.70;;;2.00;;
59239;SDS011;45010;53.640;10.578;2022-10-31T16:42:42;5.13;;;2.20;;
59239;SDS011;45010;53.640;10.578;2022-10-31T16:45:47;4.55;;;1.77;;
59239;SDS011;45010;53.640;10.578;2022-10-31T16:48:49;3.67;;;1.90;;
59239;SDS011;45010;53.640;10.578;2022-10-31T16:51:49;4.80;;;1.70;;
59239;SDS011;45010;53.640;10.578;2022-10-31T16:54:50;4.20;;;2.10;;
59239;SDS011;45010;53.640;10.578;2022-10-31T16:57:51;2.03;;;1.77;;
59239;SDS011;45010;53.640;10.578;2022-10-31T17:00:53;5.05;;;2.08;;
59239;SDS011;45010;53.640;10.578;2022-10-31T17:03:53;5.03;;;2.03;;
59239;SDS011;45010;53.640;10.578;2022-10-31T17:06:54;3.08;;;1.60;;
59239;SDS011;45010;53.640;10.578;2022-10-31T17:09:54;2.33;;;1.75;;
59239;SDS011;45010;53.640;10.578;2022-10-31T17:12:54;3.30;;;2.10;;
59239;SDS011;45010;53.640;10.578;2022-10-31T17:15:58;4.53;;;2.15;;
59239;SDS011;45010;53.640;10.578;2022-10-31T17:18:59;4.25;;;2.17;;
59239;SDS011;45010;53.640;10.578;2022-10-31T17:22:00;2.17;;;1.98;;
59239;SDS011;45010;53.640;10.578;2022-10-31T17:25:01;3.53;;;1.88;;
59239;SDS011;45010;53.640;10.578;2022-10-31T17:28:01;3.42;;;1.63;;
59239;SDS011;45010;53.640;10.578;2022-10-31T17:31:02;2.95;;;2.10;;
59239;SDS011;45010;53.640;10.578;2022-10-31T17:34:04;2.15;;;1.75;;
59239;SDS011;45010;53.640;10.578;2022-10-31T17:37:05;2.78;;;1.83;;
59239;SDS011;45010;53.640;10.578;2022-10-31T17:40:13;1.92;;;1.70;;
59239;SDS011;45010;53.640;10.578;2022-10-31T17:43:16;3.58;;;2.17;;
59239;SDS011;45010;53.640;10.578;2022-10-31T17:46:16;2.70;;;2.00;;
59239;SDS011;45010;53.640;10.578;2022-10-31T17:49:17;4.00;;;1.83;;
59239;SDS011;45010;53.640;10.578;2022-10-31T17:52:17;2.53;;;2.00;;
59239;SDS011;45010;53.640;10.578;2022-10-31T17:55:18;3.25;;;2.10;;
59239;SDS011;45010;53.640;10.578;2022-10-31T17:58:19;3.85;;;2.10;;
59239;SDS011;45010;53.640;10.578;2022-10-31T18:01:19;4.40;;;2.50;;
59239;SDS011;45010;53.640;10.578;2022-10-31T18:04:19;6.85;;;3.33;;
59239;SDS011;45010;53.640;10.578;2022-10-31T18:07:20;3.75;;;2.22;;
59239;SDS011;45010;53.640;10.578;2022-10-31T18:10:20;4.63;;;2.25;;
59239;SDS011;45010;53.640;10.578;2022-10-31T18:13:21;2.80;;;2.10;;
59239;SDS011;45010;53.640;10.578;2022-10-31T18:16:22;3.35;;;2.20;;
59239;SDS011;45010;53.640;10.578;2022-10-31T18:19:23;3.47;;;2.08;;
59239;SDS011;45010;53.640;10.578;2022-10-31T18:22:23;2.65;;;1.98;;
59239;SDS011;45010;53.640;10.578;2022-10-31T18:25:24;7.07;;;2.30;;
59239;SDS011;45010;53.640;10.578;2022-10-31T18:28:24;11.30;;;2.38;;
59239;SDS011;45010;53.640;10.578;2022-10-31T18:31:24;4.53;;;2.10;;
59239;SDS011;45010;53.640;10.578;2022-10-31T18:34:25;2.75;;;2.05;;
59239;SDS011;45010;53.640;10.578;2022-10-31T18:37:26;2.55;;;1.90;;
59239;SDS011;45010;53.640;10.578;2022-10-31T18:40:26;3.58;;;1.80;;
59239;SDS011;45010;53.640;10.578;2022-10-31T18:43:27;10.57;;;2.00;;
59239;SDS011;45010;53.640;10.578;2022-10-31T18:46:27;3.90;;;2.00;;
59239;SDS011;45010;53.640;10.578;2022-10-31T18:49:28;2.45;;;2.03;;
59239;SDS011;45010;53.640;10.578;2022-10-31T18:52:31;3.83;;;1.90;;
59239;SDS011;45010;53.640;10.578;2022-10-31T18:55:31;4.38;;;2.22;;
59239;SDS011;45010;53.640;10.578;2022-10-31T18:58:32;4.90;;;1.70;;
59239;SDS011;45010;53.640;10.578;2022-10-31T19:01:32;2.60;;;1.73;;
59239;SDS011;45010;53.640;10.578;2022-10-31T19:04:33;2.47;;;1.98;;
59239;SDS011;45010;53.640;10.578;2022-10-31T19:07:33;2.78;;;1.63;;
59239;SDS011;45010;53.640;10.578;2022-10-31T19:10:34;2.38;;;1.80;;
59239;SDS011;45010;53.640;10.578;2022-10-31T19:13:35;2.53;;;1.70;;
59239;SDS011;45010;53.640;10.578;2022-10-31T19:16:36;3.30;;;2.15;;
59239;SDS011;45010;53.640;10.578;2022-10-31T19:19:37;2.03;;;1.80;;
59239;SDS011;45010;53.640;10.578;2022-10-31T19:22:38;4.03;;;1.80;;
59239;SDS011;45010;53.640;10.578;2022-10-31T19:25:39;2.03;;;1.83;;
59239;SDS011;45010;53.640;10.578;2022-10-31T19:28:39;3.90;;;2.22;;
59239;SDS011;45010;53.640;10.578;2022-10-31T19:31:40;2.85;;;1.60;;
59239;SDS011;45010;53.640;10.578;2022-10-31T19:34:41;1.65;;;1.55;;
59239;SDS011;45010;53.640;10.578;2022-10-31T19:37:41;3.30;;;1.73;;
59239;SDS011;45010;53.640;10.578;2022-10-31T19:40:41;2.42;;;1.70;;
59239;SDS011;45010;53.640;10.578;2022-10-31T19:43:42;3.08;;;1.85;;
59239;SDS011;45010;53.640;10.578;2022-10-31T19:46:42;2.10;;;1.80;;
59239;SDS011;45010;53.640;10.578;2022-10-31T19:49:44;2.95;;;1.70;;
59239;SDS011;45010;53.640;10.578;2022-10-31T19:52:45;2.28;;;1.77;;
59239;SDS011;45010;53.640;10.578;2022-10-31T19:55:46;3.50;;;1.85;;
59239;SDS011;45010;53.640;10.578;2022-10-31T19:58:46;2.42;;;1.67;;
59239;SDS011;45010;53.640;10.578;2022-10-31T20:01:47;1.80;;;1.42;;
59239;SDS011;45010;53.640;10.578;2022-10-31T20:04:47;4.43;;;1.83;;
59239;SDS011;45010;53.640;10.578;2022-10-31T20:07:47;2.80;;;1.90;;